Time;durP1;ratioP1;P1;durP2;ratioP2;P2;SDS_P1;SDS_P2;PMS_P1;PMS_P2;Temp;Humidity;BMP_temperature;BMP_pressure;BME280_temperature;BME280_humidity;BME280_pressure;Samples;Min_cycle;Max_cycle;Signal;HPM_P1;HPM_P2
2024/01/05 00:01:28;;;;;;;46.58;19.58;;;5.30;99.90;;;;;;5113861;28;20159;-60
2024/01/05 00:03:53;;;;;;;46.42;19.88;;;5.10;99.90;;;;;;5109526;28;20072;-59
2024/01/05 00:06:19;;;;;;;46.17;18.98;;;5.70;99.90;;;;;;5112392;28;20040;-57
2024/01/05 00:08:45;;;;;;;44.10;18.15;;;5.30;99.90;;;;;;5113538;28;20043;-59
2024/01/05 00:11:17;;;;;;;45.13;17.95;;;5.80;99.90;;;;;;5114061;28;20453;-59
2024/01/05 00:13:43;;;;;;;46.08;18.60;;;4.80;99.90;;;;;;5113474;28;20499;-59
2024/01/05 00:16:24;;;;;;;43.10;18.60;;;5.80;99.90;;;;;;5113963;28;20044;-58
2024/01/05 00:18:50;;;;;;;42.00;17.38;;;5.40;99.90;;;;;;5113671;28;20054;-57
2024/01/05 00:21:23;;;;;;;43.65;18.02;;;6.00;99.90;;;;;;5113767;28;20032;-58
2024/01/05 00:23:50;;;;;;;52.00;18.63;;;5.90;99.90;;;;;;5114011;28;20501;-59
2024/01/05 00:26:16;;;;;;;42.05;19.63;;;5.50;99.90;;;;;;5112716;28;20038;-59
2024/01/05 00:28:43;;;;;;;41.92;17.92;;;4.80;99.90;;;;;;5113246;28;20042;-58
2024/01/05 00:31:14;;;;;;;44.28;18.30;;;4.80;99.90;;;;;;5113489;28;20074;-58
2024/01/05 00:33:40;;;;;;;40.75;17.92;;;5.00;99.90;;;;;;5113459;28;20110;-58
2024/01/05 00:36:07;;;;;;;48.03;19.33;;;4.80;99.90;;;;;;5113252;28;20036;-59
2024/01/05 00:38:33;;;;;;;47.58;18.30;;;4.90;99.90;;;;;;5113120;28;20048;-59
2024/01/05 00:40:59;;;;;;;43.83;18.45;;;5.90;99.90;;;;;;5113040;28;20458;-58
2024/01/05 00:43:24;;;;;;;46.22;20.00;;;4.80;99.90;;;;;;5113036;28;20051;-58
2024/01/05 00:45:50;;;;;;;46.53;19.92;;;6.00;99.90;;;;;;5112857;28;20044;-58
2024/01/05 00:48:16;;;;;;;42.65;18.73;;;5.90;99.90;;;;;;5041239;28;20050;-59
2024/01/05 00:50:42;;;;;;;45.72;19.10;;;4.70;99.90;;;;;;5113300;28;20676;-59
2024/01/05 00:53:07;;;;;;;46.75;18.40;;;5.70;99.90;;;;;;5112832;28;20166;-58
2024/01/05 00:55:33;;;;;;;43.60;18.30;;;4.80;99.90;;;;;;5113165;28;20071;-59
2024/01/05 00:57:59;;;;;;;50.38;20.27;;;6.10;99.90;;;;;;5112649;28;20039;-58
2024/01/05 01:00:24;;;;;;;44.28;17.98;;;5.90;99.90;;;;;;5113060;28;20043;-58
2024/01/05 01:02:52;;;;;;;43.20;18.50;;;5.90;99.90;;;;;;5112736;28;20121;-58
2024/01/05 01:05:17;;;;;;;43.70;19.52;;;5.00;99.90;;;;;;5112636;28;20043;-59
2024/01/05 01:07:43;;;;;;;47.85;18.25;;;5.90;99.90;;;;;;5063439;28;20038;-59
2024/01/05 01:10:09;;;;;;;42.08;17.42;;;4.90;99.90;;;;;;5029261;28;20518;-59
2024/01/05 01:12:35;;;;;;;37.25;17.10;;;5.90;99.90;;;;;;5042789;28;20031;-59
2024/01/05 01:15:01;;;;;;;40.35;16.48;;;5.10;99.90;;;;;;5105520;28;20043;-59
2024/01/05 01:17:29;;;;;;;32.40;15.27;;;5.80;99.90;;;;;;5111935;28;20035;-60
2024/01/05 01:19:55;;;;;;;36.95;16.88;;;5.80;99.90;;;;;;5111965;28;20040;-59
2024/01/05 01:22:21;;;;;;;36.95;15.80;;;5.70;99.90;;;;;;5112310;28;20379;-60
2024/01/05 01:24:47;;;;;;;38.75;15.52;;;5.70;99.90;;;;;;5112530;28;20039;-60
2024/01/05 01:27:14;;;;;;;35.17;16.13;;;5.60;99.90;;;;;;5035900;28;20068;-59
2024/01/05 01:29:39;;;;;;;29.42;15.57;;;5.80;99.90;;;;;;5029200;28;20049;-60
2024/01/05 01:32:05;;;;;;;32.47;15.07;;;4.90;99.90;;;;;;5028972;28;20502;-60
2024/01/05 01:34:31;;;;;;;34.85;14.68;;;4.70;99.90;;;;;;5028988;28;20040;-59
2024/01/05 01:36:56;;;;;;;32.65;14.55;;;4.60;99.90;;;;;;5028622;28;20049;-59
2024/01/05 01:39:22;;;;;;;29.05;13.52;;;4.70;99.90;;;;;;5028639;28;20045;-60
2024/01/05 01:41:49;;;;;;;29.92;12.98;;;4.70;99.90;;;;;;5112467;28;20471;-59
2024/01/05 01:44:15;;;;;;;34.97;14.40;;;5.70;99.90;;;;;;5111497;28;20031;-60
2024/01/05 01:46:41;;;;;;;29.33;12.38;;;4.60;99.90;;;;;;5112101;28;20058;-59
2024/01/05 01:49:06;;;;;;;38.53;14.52;;;5.30;99.90;;;;;;5109834;28;20035;-59
2024/01/05 01:51:33;;;;;;;33.42;14.13;;;5.20;99.90;;;;;;5082798;28;20035;-59
2024/01/05 01:53:59;;;;;;;38.78;14.55;;;5.00;99.90;;;;;;5111595;28;20457;-60
2024/01/05 01:56:25;;;;;;;32.58;13.43;;;4.60;99.90;;;;;;5111700;28;20047;-60
2024/01/05 01:58:51;;;;;;;36.33;15.35;;;4.60;99.90;;;;;;5112042;28;20490;-60
2024/01/05 02:01:17;;;;;;;29.80;13.43;;;5.70;99.90;;;;;;5111819;28;20091;-60
2024/01/05 02:03:43;;;;;;;32.92;14.90;;;4.70;99.90;;;;;;5110990;28;20039;-60
2024/01/05 02:06:09;;;;;;;36.67;16.45;;;5.30;99.90;;;;;;5104320;28;20051;-59
2024/01/05 02:08:36;;;;;;;36.88;15.30;;;4.70;99.90;;;;;;5103396;28;20036;-60
2024/01/05 02:11:02;;;;;;;32.05;13.88;;;5.00;99.90;;;;;;5111757;28;20089;-60
2024/01/05 02:13:28;;;;;;;32.60;14.63;;;5.80;99.90;;;;;;5111342;28;20039;-60
2024/01/05 02:15:54;;;;;;;36.53;14.35;;;5.60;99.90;;;;;;5012982;28;20136;-59
2024/01/05 02:18:19;;;;;;;33.00;15.52;;;4.80;99.90;;;;;;5028261;28;20110;-59
2024/01/05 02:20:46;;;;;;;34.60;14.45;;;5.40;99.90;;;;;;5028050;28;20040;-60
2024/01/05 02:23:26;;;;;;;33.08;14.50;;;5.20;99.90;;;;;;5028100;28;20052;-60
2024/01/05 02:25:54;;;;;;;31.17;14.00;;;5.60;99.90;;;;;;5062788;28;20486;-60
2024/01/05 02:28:19;;;;;;;28.20;13.48;;;5.70;99.90;;;;;;5110842;28;20039;-59
2024/01/05 02:30:45;;;;;;;32.75;14.57;;;5.20;99.90;;;;;;5110064;28;20039;-60
2024/01/05 02:33:11;;;;;;;29.33;13.45;;;4.80;99.90;;;;;;5111415;28;20038;-60
2024/01/05 02:35:37;;;;;;;31.35;14.00;;;5.80;99.90;;;;;;5110837;28;20039;-62
2024/01/05 02:38:03;;;;;;;29.75;13.43;;;6.00;99.90;;;;;;5026460;28;20065;-61
2024/01/05 02:40:29;;;;;;;34.60;14.15;;;5.80;99.90;;;;;;5027922;28;20503;-60
2024/01/05 02:42:54;;;;;;;32.28;14.05;;;5.10;99.90;;;;;;5027801;28;20045;-61
2024/01/05 02:45:24;;;;;;;39.10;15.00;;;5.20;99.90;;;;;;5027218;28;20079;-60
2024/01/05 02:47:53;;;;;;;29.05;13.63;;;4.80;99.90;;;;;;5028111;28;20048;-60
2024/01/05 02:50:20;;;;;;;31.52;13.98;;;5.80;99.90;;;;;;5026720;28;20049;-60
2024/01/05 02:52:46;;;;;;;30.75;14.15;;;4.70;99.90;;;;;;5111441;28;20047;-60
2024/01/05 02:55:12;;;;;;;30.80;14.60;;;5.50;99.90;;;;;;5110302;28;20031;-60
2024/01/05 02:57:39;;;;;;;29.40;13.15;;;5.60;99.90;;;;;;5110849;28;20039;-60
2024/01/05 03:00:05;;;;;;;32.92;14.48;;;4.90;99.90;;;;;;5111199;28;20067;-59
2024/01/05 03:02:31;;;;;;;36.92;14.30;;;5.20;99.90;;;;;;5110822;28;20071;-60
2024/01/05 03:04:57;;;;;;;32.50;14.48;;;4.80;99.90;;;;;;5111103;28;20087;-60
2024/01/05 03:07:23;;;;;;;30.73;14.70;;;5.70;99.90;;;;;;5110620;28;20034;-59
2024/01/05 03:09:49;;;;;;;35.85;14.23;;;5.70;99.90;;;;;;5111034;28;20039;-60
2024/01/05 03:12:17;;;;;;;36.22;14.93;;;5.80;99.90;;;;;;5109821;28;20071;-60
2024/01/05 03:14:43;;;;;;;40.08;16.55;;;5.30;99.90;;;;;;5110553;28;20351;-60
2024/01/05 03:17:08;;;;;;;34.50;15.80;;;5.60;99.90;;;;;;5110297;28;20039;-60
2024/01/05 03:19:34;;;;;;;35.75;15.90;;;5.10;99.90;;;;;;5110927;28;20036;-60
2024/01/05 03:22:00;;;;;;;34.38;14.75;;;4.70;99.90;;;;;;5110496;28;20038;-60
2024/01/05 03:24:25;;;;;;;37.35;16.77;;;5.20;99.90;;;;;;5107294;28;20039;-60
2024/01/05 03:26:51;;;;;;;42.17;17.55;;;5.40;99.90;;;;;;5104695;28;20047;-60
2024/01/05 03:29:17;;;;;;;39.13;16.90;;;6.00;99.90;;;;;;5110272;28;20038;-60
2024/01/05 03:31:46;;;;;;;46.85;17.60;;;4.80;99.90;;;;;;5101283;28;20374;-60
2024/01/05 03:34:12;;;;;;;38.72;17.50;;;5.80;99.90;;;;;;5031087;28;20104;-60
2024/01/05 03:36:38;;;;;;;48.13;18.75;;;5.80;99.90;;;;;;5110131;28;20100;-60
2024/01/05 03:39:07;;;;;;;43.67;18.02;;;5.20;99.90;;;;;;5110059;28;20055;-60
2024/01/05 03:41:33;;;;;;;44.05;18.00;;;5.40;99.90;;;;;;5113062;28;20097;-60
2024/01/05 03:43:59;;;;;;;43.17;17.58;;;6.00;99.90;;;;;;5113712;28;20122;-60
2024/01/05 03:46:24;;;;;;;41.15;17.58;;;4.90;99.90;;;;;;5114089;28;20138;-60
2024/01/05 03:48:50;;;;;;;43.85;17.70;;;5.20;99.90;;;;;;5109761;28;20035;-60
2024/01/05 03:51:16;;;;;;;43.25;17.70;;;6.20;99.90;;;;;;5079158;28;20041;-61
2024/01/05 03:53:41;;;;;;;44.25;18.60;;;5.10;99.90;;;;;;5030310;28;20362;-60
2024/01/05 03:56:08;;;;;;;45.22;18.65;;;5.30;99.90;;;;;;5030220;28;20041;-60
2024/01/05 03:58:34;;;;;;;36.58;16.30;;;5.70;99.90;;;;;;5030162;28;20098;-60
2024/01/05 04:01:03;;;;;;;37.75;17.70;;;5.20;99.90;;;;;;5030292;28;20124;-59
2024/01/05 04:03:29;;;;;;;39.53;17.25;;;5.60;99.90;;;;;;5030274;28;20038;-60
2024/01/05 04:05:55;;;;;;;46.00;18.48;;;5.20;99.90;;;;;;5030478;28;20094;-60
2024/01/05 04:08:21;;;;;;;51.67;18.77;;;6.20;99.90;;;;;;5088725;28;20036;-59
2024/01/05 04:10:47;;;;;;;48.97;18.20;;;6.20;99.90;;;;;;5113930;28;20710;-61
2024/01/05 04:13:12;;;;;;;42.70;17.85;;;5.00;99.90;;;;;;5031204;28;20041;-60
2024/01/05 04:15:39;;;;;;;54.72;19.17;;;6.10;99.90;;;;;;5029857;28;20045;-60
2024/01/05 04:18:05;;;;;;;46.85;18.55;;;6.00;99.90;;;;;;5029887;28;20098;-59
2024/01/05 04:20:31;;;;;;;49.70;18.77;;;5.10;99.90;;;;;;5030049;28;20030;-60
2024/01/05 04:22:58;;;;;;;44.42;18.20;;;5.50;99.90;;;;;;5029960;28;20045;-60
2024/01/05 04:25:24;;;;;;;48.88;19.70;;;6.10;99.90;;;;;;5029885;28;20080;-61
2024/01/05 04:27:49;;;;;;;49.78;19.83;;;6.30;99.90;;;;;;5101921;28;20085;-60
2024/01/05 04:30:15;;;;;;;43.35;19.90;;;6.20;99.90;;;;;;5113179;28;20032;-60
2024/01/05 04:32:43;;;;;;;52.92;20.63;;;5.10;99.90;;;;;;5113357;28;20080;-60
2024/01/05 04:35:09;;;;;;;45.72;19.58;;;6.20;99.90;;;;;;5113643;28;20044;-60
2024/01/05 04:37:34;;;;;;;51.47;20.10;;;5.10;99.90;;;;;;5100865;28;20051;-60
2024/01/05 04:40:00;;;;;;;53.72;20.77;;;5.70;99.90;;;;;;5110812;28;20497;-60
2024/01/05 04:42:26;;;;;;;52.63;23.30;;;5.60;99.90;;;;;;5111210;28;20093;-59
2024/01/05 04:44:53;;;;;;;51.97;21.17;;;5.20;99.90;;;;;;5029540;28;20120;-60
2024/01/05 04:47:18;;;;;;;57.25;21.80;;;5.20;99.90;;;;;;5029474;28;20045;-59
2024/01/05 04:49:44;;;;;;;57.85;21.13;;;6.10;99.90;;;;;;5029606;28;20120;-60
2024/01/05 04:52:10;;;;;;;48.38;21.40;;;6.20;99.90;;;;;;5072993;28;20471;-60
2024/01/05 04:54:36;;;;;;;51.35;21.45;;;5.70;99.90;;;;;;5113082;28;20071;-60
2024/01/05 04:57:02;;;;;;;54.22;23.38;;;5.20;99.90;;;;;;5031240;28;20041;-60
2024/01/05 04:59:27;;;;;;;52.22;22.23;;;6.30;99.90;;;;;;5029268;28;20030;-60
2024/01/05 05:01:53;;;;;;;46.88;20.92;;;5.20;99.90;;;;;;5029538;28;20072;-60
2024/01/05 05:04:19;;;;;;;59.40;22.27;;;6.30;99.90;;;;;;5029328;28;20045;-60
2024/01/05 05:06:45;;;;;;;59.10;23.10;;;6.40;99.90;;;;;;5029473;28;20128;-60
2024/01/05 05:09:11;;;;;;;56.75;22.13;;;5.50;99.90;;;;;;5029208;28;20029;-60
2024/01/05 05:11:39;;;;;;;54.70;21.65;;;6.60;99.90;;;;;;5029465;28;20029;-60
2024/01/05 05:14:04;;;;;;;61.20;22.63;;;5.50;99.90;;;;;;5034026;28;20483;-61
2024/01/05 05:16:30;;;;;;;60.08;22.27;;;6.30;99.90;;;;;;5112499;28;20039;-60
2024/01/05 05:18:56;;;;;;;62.20;22.92;;;6.10;99.90;;;;;;5112114;28;20119;-60
2024/01/05 05:21:22;;;;;;;57.03;23.00;;;5.70;99.90;;;;;;5096491;28;20301;-59
2024/01/05 05:23:47;;;;;;;56.35;22.67;;;6.40;99.90;;;;;;5108737;28;20043;-61
2024/01/05 05:26:13;;;;;;;61.42;23.27;;;5.40;99.90;;;;;;5112384;28;20104;-61
2024/01/05 05:28:39;;;;;;;61.92;24.38;;;6.40;99.90;;;;;;5112068;28;20028;-60
2024/01/05 05:31:05;;;;;;;57.58;22.40;;;6.50;99.90;;;;;;5108206;28;20115;-60
2024/01/05 05:33:30;;;;;;;65.15;23.67;;;6.40;99.90;;;;;;5028113;28;20112;-60
2024/01/05 05:35:56;;;;;;;58.95;22.15;;;6.40;99.90;;;;;;5028758;28;20555;-61
2024/01/05 05:38:22;;;;;;;62.67;23.23;;;5.70;99.90;;;;;;5028654;28;20053;-60
2024/01/05 05:40:48;;;;;;;59.72;22.88;;;6.00;99.90;;;;;;5077056;28;20058;-60
2024/01/05 05:43:13;;;;;;;58.17;23.17;;;5.70;99.90;;;;;;5111920;28;20036;-60
2024/01/05 05:45:40;;;;;;;54.95;23.25;;;6.50;99.90;;;;;;5107185;28;20495;-60
2024/01/05 05:48:06;;;;;;;64.18;24.40;;;6.70;99.90;;;;;;5111845;28;20035;-60
2024/01/05 05:50:32;;;;;;;60.90;23.17;;;6.40;99.90;;;;;;5111620;28;20038;-60
2024/01/05 05:52:58;;;;;;;61.67;24.05;;;5.90;99.90;;;;;;5112049;28;20044;-61
2024/01/05 05:55:23;;;;;;;68.28;25.23;;;5.50;99.90;;;;;;5111374;28;20055;-60
2024/01/05 05:57:49;;;;;;;65.90;24.33;;;6.30;99.90;;;;;;5111751;28;20035;-60
2024/01/05 06:00:15;;;;;;;63.58;23.88;;;6.70;99.90;;;;;;5106141;28;20115;-60
2024/01/05 06:02:41;;;;;;;60.10;23.02;;;5.70;99.90;;;;;;5023987;28;20486;-60
2024/01/05 06:05:07;;;;;;;64.40;24.75;;;6.50;99.90;;;;;;5111506;28;20043;-60
2024/01/05 06:07:33;;;;;;;66.38;23.60;;;6.40;99.90;;;;;;5111671;28;20110;-60
2024/01/05 06:09:59;;;;;;;60.00;22.77;;;5.60;99.90;;;;;;5111515;28;20122;-59
2024/01/05 06:12:24;;;;;;;65.72;23.85;;;5.80;99.90;;;;;;5111385;28;20479;-60
2024/01/05 06:14:50;;;;;;;66.88;24.20;;;6.60;99.90;;;;;;5028003;28;20144;-60
2024/01/05 06:17:17;;;;;;;70.95;25.00;;;6.60;99.90;;;;;;5028426;28;20033;-60
2024/01/05 06:19:43;;;;;;;69.25;24.38;;;5.70;99.90;;;;;;5028105;28;20041;-60
2024/01/05 06:22:09;;;;;;;57.15;23.42;;;5.90;99.90;;;;;;5028307;28;20049;-60
2024/01/05 06:24:34;;;;;;;71.82;25.15;;;5.80;99.90;;;;;;5062002;28;20096;-60
2024/01/05 06:27:00;;;;;;;63.45;24.33;;;5.90;99.90;;;;;;5108813;28;20035;-60
2024/01/05 06:29:26;;;;;;;65.50;25.70;;;5.70;99.90;;;;;;5110977;28;20554;-61
2024/01/05 06:31:51;;;;;;;68.15;25.35;;;6.10;99.90;;;;;;5027082;28;20072;-60
2024/01/05 06:34:17;;;;;;;64.90;24.40;;;5.70;99.90;;;;;;5027890;28;20029;-60
2024/01/05 06:36:43;;;;;;;70.90;27.33;;;6.20;99.90;;;;;;5028274;28;20061;-60
2024/01/05 06:39:08;;;;;;;70.15;25.60;;;6.10;99.90;;;;;;5098328;28;20498;-60
2024/01/05 06:41:34;;;;;;;72.32;24.90;;;5.80;99.90;;;;;;5046718;28;20507;-60
2024/01/05 06:44:00;;;;;;;68.97;25.33;;;6.30;99.90;;;;;;5027569;28;20150;-60
2024/01/05 06:46:27;;;;;;;66.07;24.92;;;6.50;99.90;;;;;;5027424;28;20045;-61
2024/01/05 06:48:53;;;;;;;68.50;25.10;;;6.90;99.90;;;;;;5027581;28;20081;-60
2024/01/05 06:51:18;;;;;;;66.93;24.67;;;6.90;99.90;;;;;;5093273;28;20070;-60
2024/01/05 06:53:44;;;;;;;71.55;25.33;;;6.70;99.90;;;;;;5012737;28;20034;-60
2024/01/05 06:56:11;;;;;;;69.95;25.45;;;6.80;99.90;;;;;;5027514;28;20442;-60
2024/01/05 06:58:37;;;;;;;65.10;26.65;;;6.90;99.90;;;;;;5027980;28;20484;-60
2024/01/05 07:01:03;;;;;;;75.18;26.52;;;5.80;99.90;;;;;;5027648;28;20048;-60
2024/01/05 07:03:29;;;;;;;67.72;25.77;;;6.00;99.90;;;;;;5027608;28;20049;-60
2024/01/05 07:05:55;;;;;;;69.25;25.15;;;6.90;99.90;;;;;;5027278;28;20168;-59
2024/01/05 07:08:20;;;;;;;62.65;25.95;;;6.20;99.90;;;;;;5027849;28;20026;-61
2024/01/05 07:10:46;;;;;;;67.55;24.88;;;6.80;99.90;;;;;;5009559;28;20068;-60
2024/01/05 07:13:12;;;;;;;68.00;24.05;;;5.90;99.90;;;;;;5103894;28;20035;-60
2024/01/05 07:15:37;;;;;;;63.22;25.15;;;5.90;99.90;;;;;;5111399;28;20039;-60
2024/01/05 07:18:05;;;;;;;61.85;23.85;;;6.10;99.90;;;;;;5114793;28;20040;-60
2024/01/05 07:20:32;;;;;;;66.38;24.75;;;7.00;99.90;;;;;;5114986;28;20492;-60
2024/01/05 07:22:59;;;;;;;61.90;23.88;;;6.90;99.90;;;;;;5114527;28;20035;-59
2024/01/05 07:25:25;;;;;;;71.07;25.67;;;6.90;99.90;;;;;;5114819;28;20092;-60
2024/01/05 07:27:50;;;;;;;70.78;26.23;;;6.40;99.90;;;;;;5114453;28;20040;-61
2024/01/05 07:30:16;;;;;;;68.70;25.63;;;6.90;99.90;;;;;;5107708;28;20420;-60
2024/01/05 07:32:42;;;;;;;68.38;24.73;;;6.90;99.90;;;;;;5114170;28;20043;-60
2024/01/05 07:35:09;;;;;;;69.32;25.25;;;6.40;99.90;;;;;;5037890;28;20041;-60
2024/01/05 07:37:34;;;;;;;67.85;24.30;;;6.00;99.90;;;;;;5106741;28;20032;-60
2024/01/05 07:40:00;;;;;;;66.07;25.33;;;6.70;99.90;;;;;;5090833;28;20496;-60
2024/01/05 07:42:27;;;;;;;71.05;24.92;;;6.50;99.90;;;;;;5112792;28;20038;-60
2024/01/05 07:44:54;;;;;;;69.55;24.88;;;6.10;99.90;;;;;;5109242;28;20388;-60
2024/01/05 07:47:19;;;;;;;65.72;23.17;;;6.80;99.90;;;;;;5113398;28;20484;-60
2024/01/05 07:49:45;;;;;;;62.78;23.23;;;7.00;99.90;;;;;;5113750;28;20106;-60
2024/01/05 07:52:11;;;;;;;67.07;22.15;;;6.10;99.90;;;;;;5113939;28;20035;-60
2024/01/05 07:54:40;;;;;;;56.20;21.55;;;6.20;99.90;;;;;;5070222;28;20046;-60
2024/01/05 07:57:07;;;;;;;54.60;20.55;;;6.20;99.90;;;;;;5028930;28;20052;-60
2024/01/05 07:59:33;;;;;;;57.63;20.15;;;7.30;99.90;;;;;;5030238;28;20098;-60
2024/01/05 08:01:59;;;;;;;52.15;18.88;;;6.20;99.90;;;;;;5030246;28;20476;-60
2024/01/05 08:04:24;;;;;;;42.08;16.92;;;6.60;99.90;;;;;;5052802;28;20390;-60
2024/01/05 08:06:51;;;;;;;47.65;18.17;;;6.40;99.90;;;;;;5113894;28;20032;-60
2024/01/05 08:09:17;;;;;;;38.25;14.73;;;7.30;99.90;;;;;;5070414;28;20120;-60
2024/01/05 08:11:43;;;;;;;34.38;12.80;;;6.40;99.90;;;;;;5101058;28;20077;-60
2024/01/05 08:14:09;;;;;;;34.78;12.70;;;7.40;99.90;;;;;;5106561;28;20031;-60
2024/01/05 08:16:36;;;;;;;32.67;10.23;;;7.40;99.90;;;;;;5084934;28;20195;-58
2024/01/05 08:19:01;;;;;;;26.40;7.90;;;7.40;99.90;;;;;;5069751;28;20044;-58
2024/01/05 08:21:27;;;;;;;23.20;7.25;;;6.70;99.90;;;;;;5108277;28;20118;-57
2024/01/05 08:23:53;;;;;;;19.20;7.22;;;6.60;99.90;;;;;;5091151;28;20043;-57
2024/01/05 08:26:19;;;;;;;27.73;6.72;;;6.80;99.90;;;;;;5015005;28;20050;-58
2024/01/05 08:28:45;;;;;;;15.88;5.40;;;6.80;99.90;;;;;;5094123;28;20065;-57
2024/01/05 08:31:11;;;;;;;20.95;6.05;;;7.60;99.90;;;;;;5089100;27;20091;-58
2024/01/05 08:33:36;;;;;;;16.58;5.32;;;7.70;99.90;;;;;;5081683;28;20047;-58
2024/01/05 08:36:02;;;;;;;18.90;5.35;;;7.80;99.90;;;;;;5086967;28;20442;-58
2024/01/05 08:38:28;;;;;;;20.45;5.15;;;7.10;99.90;;;;;;5068867;28;20054;-58
2024/01/05 08:40:54;;;;;;;20.42;5.28;;;7.10;99.90;;;;;;5058336;28;20043;-58
2024/01/05 08:43:19;;;;;;;14.60;4.47;;;7.20;99.90;;;;;;5100379;28;20039;-58
2024/01/05 08:45:46;;;;;;;14.80;5.25;;;7.80;99.90;;;;;;5088879;28;20081;-57
2024/01/05 08:48:13;;;;;;;15.80;4.88;;;8.10;99.90;;;;;;5074111;28;20103;-59
2024/01/05 08:50:39;;;;;;;15.63;4.47;;;7.20;99.90;;;;;;5027032;28;20034;-58
2024/01/05 08:53:05;;;;;;;12.93;4.60;;;7.40;99.90;;;;;;5021731;28;20035;-58
2024/01/05 08:55:31;;;;;;;11.38;4.10;;;7.70;99.90;;;;;;5081096;28;20037;-57
2024/01/05 08:57:57;;;;;;;13.07;4.18;;;8.10;99.90;;;;;;5020741;28;20488;-57
2024/01/05 09:00:23;;;;;;;14.68;4.22;;;7.20;99.90;;;;;;5105976;28;20035;-58
2024/01/05 09:02:49;;;;;;;13.43;4.30;;;7.20;99.90;;;;;;5093985;28;20096;-58
2024/01/05 09:05:14;;;;;;;15.15;4.05;;;7.90;99.90;;;;;;5022412;28;20096;-58
2024/01/05 09:07:40;;;;;;;14.15;4.32;;;8.10;99.90;;;;;;5087685;27;20030;-58
2024/01/05 09:10:08;;;;;;;15.68;4.28;;;7.50;99.90;;;;;;5074875;28;20057;-58
2024/01/05 09:12:34;;;;;;;11.95;3.20;;;7.20;99.90;;;;;;5076797;28;20046;-58
2024/01/05 09:15:00;;;;;;;10.30;3.63;;;7.30;99.90;;;;;;5081356;28;20042;-58
2024/01/05 09:17:25;;;;;;;15.95;3.40;;;8.10;99.90;;;;;;5079506;28;20125;-60
2024/01/05 09:19:51;;;;;;;14.05;3.10;;;7.30;99.90;;;;;;5083242;28;20091;-60
2024/01/05 09:22:17;;;;;;;10.70;2.63;;;7.50;99.90;;;;;;5091166;28;20048;-60
2024/01/05 09:24:42;;;;;;;10.85;2.88;;;7.40;99.90;;;;;;5016843;28;20103;-58
2024/01/05 09:27:08;;;;;;;6.38;2.10;;;8.00;99.90;;;;;;5085551;28;20404;-58
2024/01/05 09:29:34;;;;;;;4.22;1.70;;;8.00;99.90;;;;;;5088012;28;20416;-58
2024/01/05 09:32:00;;;;;;;3.28;1.35;;;7.50;99.90;;;;;;5075706;28;20554;-60
2024/01/05 09:34:26;;;;;;;2.80;1.50;;;7.50;99.90;;;;;;5070648;28;20513;-61
2024/01/05 09:36:53;;;;;;;5.35;1.50;;;7.40;99.90;;;;;;5076109;28;20042;-60
2024/01/05 09:39:19;;;;;;;5.75;1.70;;;8.20;99.90;;;;;;5088880;28;20055;-60
2024/01/05 09:41:48;;;;;;;5.00;1.70;;;7.90;99.90;;;;;;5081164;28;20046;-60
2024/01/05 09:44:16;;;;;;;7.30;1.63;;;7.50;99.90;;;;;;5109606;28;20122;-60
2024/01/05 09:46:43;;;;;;;4.35;1.58;;;8.10;99.90;;;;;;5090970;28;20043;-60
2024/01/05 09:49:09;;;;;;;8.40;1.80;;;7.50;99.90;;;;;;5101653;28;20027;-60
2024/01/05 09:51:35;;;;;;;4.55;2.00;;;8.00;99.90;;;;;;5100272;28;20047;-61
2024/01/05 09:54:02;;;;;;;7.47;2.15;;;8.00;99.90;;;;;;5084135;28;20069;-59
2024/01/05 09:56:28;;;;;;;7.38;1.50;;;8.10;99.90;;;;;;5085703;28;20047;-60
2024/01/05 09:58:55;;;;;;;6.82;1.73;;;7.60;99.90;;;;;;5083856;28;20032;-60
2024/01/05 10:01:27;;;;;;;7.47;1.40;;;7.30;99.90;;;;;;5068091;28;20386;-60
2024/01/05 10:03:57;;;;;;;6.05;1.40;;;8.00;99.90;;;;;;5090531;28;20031;-60
2024/01/05 10:06:25;;;;;;;2.97;0.80;;;8.10;99.90;;;;;;5091240;28;20250;-60
2024/01/05 10:08:54;;;;;;;3.30;1.10;;;7.40;99.90;;;;;;5069051;28;20050;-60
2024/01/05 10:11:34;;;;;;;4.22;1.20;;;8.10;99.90;;;;;;5077532;28;20030;-59
2024/01/05 10:14:02;;;;;;;2.75;0.93;;;8.10;99.90;;;;;;5071812;28;20042;-58
2024/01/05 10:16:39;;;;;;;5.18;0.90;;;7.40;99.90;;;;;;5103715;28;20035;-59
2024/01/05 10:19:14;;;;;;;9.23;5.68;;;7.40;99.90;;;;;;5109869;28;20046;-61
2024/01/05 10:21:44;;;;;;;3.67;1.02;;;7.70;99.90;;;;;;5108876;28;20039;-59
2024/01/05 10:24:22;;;;;;;2.90;1.00;;;7.80;99.90;;;;;;5111498;28;20040;-59
2024/01/05 10:27:04;;;;;;;5.82;1.10;;;7.60;99.90;;;;;;5030574;28;20490;-59
2024/01/05 10:29:31;;;;;;;3.63;0.90;;;7.30;99.90;;;;;;5028256;28;20108;-59
2024/01/05 10:32:13;;;;;;;3.15;0.98;;;7.70;99.90;;;;;;5028250;28;20037;-60
2024/01/05 10:34:47;;;;;;;4.53;1.00;;;7.70;99.90;;;;;;5023554;28;20582;-61
2024/01/05 10:37:14;;;;;;;5.45;0.95;;;7.60;99.90;;;;;;5021670;28;20035;-60
2024/01/05 10:39:52;;;;;;;2.35;0.93;;;7.80;99.90;;;;;;5021974;28;20062;-60
2024/01/05 10:42:22;;;;;;;3.05;1.00;;;7.80;99.90;;;;;;5032966;28;20128;-59
2024/01/05 10:44:51;;;;;;;3.78;1.30;;;7.50;99.90;;;;;;5015979;28;20416;-60
2024/01/05 10:47:18;;;;;;;3.70;1.13;;;7.10;99.90;;;;;;5021221;28;20079;-60
2024/01/05 10:49:49;;;;;;;6.72;1.30;;;7.00;99.90;;;;;;5027832;28;20038;-60
2024/01/05 10:52:22;;;;;;;3.88;1.30;;;7.00;99.90;;;;;;5019919;28;20548;-58
2024/01/05 10:54:50;;;;;;;3.53;1.10;;;7.60;99.90;;;;;;5026955;28;20149;-58
2024/01/05 10:57:16;;;;;;;3.42;1.30;;;7.40;99.90;;;;;;5023022;28;20430;-58
2024/01/05 10:59:47;;;;;;;4.15;1.77;;;7.70;99.90;;;;;;5024063;28;20038;-58
2024/01/05 11:02:46;;;;;;;5.10;1.98;;;7.80;99.90;;;;;;5021591;28;20044;-58
2024/01/05 11:05:13;;;;;;;5.93;1.90;;;7.80;99.90;;;;;;5019663;28;20042;-60
2024/01/05 11:07:40;;;;;;;4.32;1.80;;;6.90;99.90;;;;;;5018690;28;20030;-61
2024/01/05 11:10:12;;;;;;;7.72;1.73;;;7.70;99.90;;;;;;5016104;28;20112;-58
2024/01/05 11:12:49;;;;;;;5.35;1.80;;;7.80;99.90;;;;;;5017326;28;20062;-59
2024/01/05 11:15:30;;;;;;;5.65;1.70;;;7.80;99.90;;;;;;5019172;28;20035;-58
2024/01/05 11:18:14;;;;;;;5.05;1.50;;;7.80;99.90;;;;;;5023449;28;20492;-59
2024/01/05 11:20:55;;;;;;;4.68;1.88;;;7.70;99.90;;;;;;5031155;28;20140;-58
2024/01/05 11:23:24;;;;;;;5.50;1.38;;;6.90;99.90;;;;;;5021879;28;20044;-58
2024/01/05 11:25:49;;;;;;;3.13;1.40;;;7.70;99.90;;;;;;5029305;28;20046;-59
2024/01/05 11:28:35;;;;;;;3.90;1.60;;;7.80;99.90;;;;;;5030906;28;20473;-58
2024/01/05 11:31:01;;;;;;;6.10;1.85;;;7.70;99.90;;;;;;5015298;28;20041;-58
2024/01/05 11:33:46;;;;;;;3.78;1.67;;;7.40;99.90;;;;;;5016580;28;20026;-58
2024/01/05 11:36:12;;;;;;;2.95;1.40;;;7.80;99.90;;;;;;5036291;28;20076;-58
2024/01/05 11:38:44;;;;;;;3.35;1.33;;;7.70;99.90;;;;;;5012699;28;20083;-58
2024/01/05 11:41:19;;;;;;;3.78;1.20;;;7.80;99.90;;;;;;5033860;28;20398;-60
2024/01/05 11:43:45;;;;;;;3.03;1.23;;;7.70;99.90;;;;;;5030786;28;20519;-58
2024/01/05 11:46:12;;;;;;;3.25;1.35;;;7.60;99.90;;;;;;5027040;28;20042;-59
2024/01/05 11:48:38;;;;;;;2.28;1.20;;;7.80;99.90;;;;;;5021701;28;20031;-58
2024/01/05 11:51:07;;;;;;;4.90;1.63;;;6.90;99.90;;;;;;5020006;28;20535;-59
2024/01/05 11:53:33;;;;;;;3.15;1.58;;;7.70;99.90;;;;;;5020851;28;20031;-60
2024/01/05 11:56:03;;;;;;;2.60;1.17;;;7.60;99.90;;;;;;4997739;28;20038;-60
2024/01/05 11:58:33;;;;;;;3.53;1.45;;;7.30;99.90;;;;;;4999962;28;20066;-59
2024/01/05 12:01:00;;;;;;;2.70;1.50;;;7.70;99.90;;;;;;5015466;28;20034;-58
2024/01/05 12:03:27;;;;;;;4.68;1.58;;;6.90;99.90;;;;;;5021860;28;20046;-59
2024/01/05 12:05:57;;;;;;;2.35;1.42;;;7.20;99.90;;;;;;5020082;28;20057;-59
2024/01/05 12:08:23;;;;;;;3.35;1.73;;;7.80;99.90;;;;;;5018663;28;20500;-59
2024/01/05 12:10:56;;;;;;;4.38;1.70;;;7.10;99.90;;;;;;5024886;28;20083;-59
2024/01/05 12:13:26;;;;;;;4.60;1.70;;;7.60;99.90;;;;;;5022216;28;20034;-59
2024/01/05 12:16:03;;;;;;;3.38;1.58;;;7.30;99.90;;;;;;5022325;28;20039;-59
2024/01/05 12:18:32;;;;;;;3.65;1.50;;;7.70;99.90;;;;;;5017956;28;20057;-59
2024/01/05 12:21:02;;;;;;;3.00;1.50;;;6.90;99.90;;;;;;5022482;28;20041;-59
2024/01/05 12:23:31;;;;;;;3.95;1.60;;;6.80;99.90;;;;;;5018759;28;20034;-58
2024/01/05 12:26:03;;;;;;;3.88;1.23;;;7.50;99.90;;;;;;5026094;28;20067;-60
2024/01/05 12:28:30;;;;;;;2.80;1.17;;;7.60;99.90;;;;;;5023039;28;20030;-60
2024/01/05 12:30:58;;;;;;;2.45;1.10;;;7.70;99.90;;;;;;5021461;28;20045;-59
2024/01/05 12:33:26;;;;;;;2.95;1.33;;;7.30;99.90;;;;;;5022097;28;20035;-59
2024/01/05 12:35:52;;;;;;;2.50;1.38;;;7.60;99.90;;;;;;5016844;28;20090;-59
2024/01/05 12:38:23;;;;;;;1.95;1.00;;;7.60;99.90;;;;;;5027341;28;20366;-58
2024/01/05 12:40:48;;;;;;;2.13;1.00;;;7.10;99.90;;;;;;5030306;28;20101;-59
2024/01/05 12:43:16;;;;;;;2.78;1.30;;;7.40;99.90;;;;;;5018555;28;20049;-59